Time;durP1;ratioP1;P1;durP2;ratioP2;P2;SDS_P1;SDS_P2;PMS_P1;PMS_P2;Temp;Humidity;BMP_temperature;BMP_pressure;BME280_temperature;BME280_humidity;BME280_pressure;Samples;Min_cycle;Max_cycle;Signal;HPM_P1;HPM_P2
2023/05/01 00:00:31;;;;;;;11.10;7.20;;;15.40;94.20;;;;;;4132877;28;20455;-53
2023/05/01 00:02:33;;;;;;;9.00;6.68;;;15.40;94.40;;;;;;4132847;28;20480;-56
2023/05/01 00:04:35;;;;;;;11.68;7.10;;;15.40;94.20;;;;;;4131682;28;20554;-52
2023/05/01 00:06:38;;;;;;;11.23;7.80;;;15.40;94.40;;;;;;4132486;28;20484;-52
2023/05/01 00:08:41;;;;;;;10.32;7.40;;;15.40;94.40;;;;;;4132838;28;20133;-52
2023/05/01 00:10:43;;;;;;;9.68;7.55;;;15.40;94.40;;;;;;4132778;28;20054;-52
2023/05/01 00:12:48;;;;;;;11.85;7.85;;;15.30;94.70;;;;;;4132722;28;20124;-53
2023/05/01 00:14:50;;;;;;;11.40;8.00;;;15.30;94.70;;;;;;4131873;28;20060;-51
2023/05/01 00:16:52;;;;;;;11.27;7.72;;;15.30;94.50;;;;;;4132811;28;20045;-52
2023/05/01 00:18:54;;;;;;;12.00;7.90;;;15.30;94.50;;;;;;4115921;28;20161;-53
2023/05/01 00:20:56;;;;;;;11.95;7.80;;;15.30;94.40;;;;;;4132968;28;20054;-53
2023/05/01 00:23:00;;;;;;;14.02;7.85;;;15.30;94.40;;;;;;4132601;28;20055;-52
2023/05/01 00:25:05;;;;;;;10.30;8.18;;;15.20;94.80;;;;;;4130221;28;20050;-52
2023/05/01 00:27:07;;;;;;;14.70;8.18;;;15.20;94.90;;;;;;4099117;29;20047;-51
2023/05/01 00:29:09;;;;;;;15.23;9.30;;;15.20;94.70;;;;;;4116226;28;20069;-51
2023/05/01 00:31:11;;;;;;;10.05;7.57;;;15.30;94.60;;;;;;4116271;28;20085;-52
2023/05/01 00:33:14;;;;;;;11.73;8.20;;;15.30;94.80;;;;;;4115940;28;20077;-52
2023/05/01 00:35:16;;;;;;;12.15;8.88;;;15.30;94.80;;;;;;4115381;28;20480;-52
2023/05/01 00:37:18;;;;;;;11.73;8.27;;;15.20;94.90;;;;;;4116280;28;20050;-52
2023/05/01 00:39:20;;;;;;;15.73;8.38;;;15.20;95.00;;;;;;4116227;28;20047;-52
2023/05/01 00:41:24;;;;;;;16.75;9.10;;;15.30;94.80;;;;;;4098806;29;20055;-51
2023/05/01 00:43:26;;;;;;;14.50;9.73;;;15.20;94.80;;;;;;4116197;28;20074;-52
2023/05/01 00:45:28;;;;;;;13.48;9.43;;;15.10;94.90;;;;;;4115087;28;20404;-53
2023/05/01 00:47:30;;;;;;;11.25;8.40;;;15.10;95.10;;;;;;4115632;28;20042;-52
2023/05/01 00:49:33;;;;;;;15.05;8.50;;;15.10;95.10;;;;;;4115623;28;20119;-52
2023/05/01 00:51:35;;;;;;;12.75;8.85;;;15.10;95.30;;;;;;4098666;29;20452;-52
2023/05/01 00:53:40;;;;;;;13.13;8.45;;;15.00;95.70;;;;;;4115772;28;20046;-54
2023/05/01 00:55:42;;;;;;;11.82;8.55;;;15.10;95.40;;;;;;4114935;28;20047;-52
2023/05/01 00:57:46;;;;;;;13.93;9.15;;;15.00;95.30;;;;;;4115954;28;20371;-52
2023/05/01 00:59:48;;;;;;;12.10;9.20;;;15.00;95.80;;;;;;4115905;28;20098;-53
2023/05/01 01:01:50;;;;;;;11.52;8.95;;;14.90;95.80;;;;;;4115529;28;20047;-53
2023/05/01 01:03:55;;;;;;;14.65;10.05;;;14.90;95.90;;;;;;4115634;28;20511;-53
2023/05/01 01:06:06;;;;;;;14.68;9.73;;;14.90;95.70;;;;;;4114524;28;20101;-52
2023/05/01 01:08:16;;;;;;;12.95;10.07;;;14.80;95.80;;;;;;4115627;28;20065;-52
2023/05/01 01:10:26;;;;;;;14.35;9.55;;;14.70;96.00;;;;;;4115513;28;20051;-52
2023/05/01 01:12:38;;;;;;;14.50;9.52;;;14.50;96.60;;;;;;4115675;28;20054;-52
2023/05/01 01:15:01;;;;;;;11.50;8.27;;;14.50;96.50;;;;;;4114798;28;20393;-54
2023/05/01 01:17:10;;;;;;;11.02;8.95;;;14.60;96.70;;;;;;4115087;28;20129;-55
2023/05/01 01:19:46;;;;;;;15.20;9.30;;;14.60;96.50;;;;;;4115668;28;20051;-55
2023/05/01 01:21:54;;;;;;;16.33;9.70;;;14.60;96.40;;;;;;4115212;28;20059;-54
2023/05/01 01:24:25;;;;;;;10.73;8.63;;;14.60;96.40;;;;;;4115427;28;20141;-55
2023/05/01 01:26:38;;;;;;;10.90;8.20;;;14.50;96.50;;;;;;4127725;28;20474;-55
2023/05/01 01:29:03;;;;;;;12.25;9.00;;;14.40;96.50;;;;;;4114114;28;20047;-54
2023/05/01 01:31:19;;;;;;;12.63;8.63;;;14.40;96.50;;;;;;4121411;28;20105;-54
2023/05/01 01:33:57;;;;;;;11.48;7.80;;;14.40;96.60;;;;;;4131550;28;20499;-55
2023/05/01 01:36:05;;;;;;;10.85;8.55;;;14.50;96.60;;;;;;4130572;28;20054;-57
2023/05/01 01:38:16;;;;;;;11.52;9.35;;;14.50;96.60;;;;;;4131709;28;20049;-55
2023/05/01 01:40:23;;;;;;;13.68;8.88;;;14.40;96.60;;;;;;4131287;28;20121;-55
2023/05/01 01:42:33;;;;;;;12.95;9.02;;;14.40;96.40;;;;;;4131181;28;20073;-55
2023/05/01 01:44:40;;;;;;;14.63;8.60;;;14.40;96.50;;;;;;4130511;28;20507;-54
2023/05/01 01:46:43;;;;;;;12.88;8.82;;;14.40;96.50;;;;;;4130882;28;20050;-54
2023/05/01 01:48:49;;;;;;;12.32;8.60;;;14.40;96.60;;;;;;4131576;28;20201;-55
2023/05/01 01:50:52;;;;;;;11.57;8.43;;;14.20;96.60;;;;;;4131171;28;20089;-56
2023/05/01 01:52:58;;;;;;;10.02;8.35;;;14.30;96.70;;;;;;4131083;28;20121;-54
2023/05/01 01:55:05;;;;;;;11.43;8.57;;;14.20;97.00;;;;;;4130292;28;20492;-54
2023/05/01 01:57:10;;;;;;;9.60;7.63;;;14.20;97.10;;;;;;4130990;28;20046;-55
2023/05/01 01:59:14;;;;;;;12.32;9.55;;;14.20;97.10;;;;;;4131247;28;20051;-54
2023/05/01 02:01:17;;;;;;;10.50;8.70;;;14.20;96.90;;;;;;4130895;28;20499;-53
2023/05/01 02:03:20;;;;;;;13.40;8.98;;;14.20;97.10;;;;;;4131306;28;20054;-61
2023/05/01 02:05:25;;;;;;;11.43;9.10;;;14.20;97.00;;;;;;4129768;28;20050;-54
2023/05/01 02:07:29;;;;;;;11.20;8.82;;;14.30;97.10;;;;;;4131017;28;20104;-54
2023/05/01 02:09:34;;;;;;;13.32;9.38;;;14.30;96.90;;;;;;4131124;28;20057;-55
2023/05/01 02:11:36;;;;;;;;;;;14.30;96.90;;;;;;4131547;28;20086;-54
2023/05/01 02:13:41;;;;;;;12.77;10.70;;;14.30;96.90;;;;;;4131236;28;20003;-53
2023/05/01 02:15:44;;;;;;;10.55;9.05;;;14.20;97.10;;;;;;4129958;28;20066;-53
2023/05/01 02:17:49;;;;;;;13.10;9.57;;;14.20;97.20;;;;;;4131022;28;20060;-53
2023/05/01 02:19:53;;;;;;;12.20;9.80;;;14.20;97.10;;;;;;4131611;28;20074;-53
2023/05/01 02:22:00;;;;;;;12.15;9.05;;;14.20;97.00;;;;;;4134107;28;20068;-54
2023/05/01 02:24:03;;;;;;;12.48;10.77;;;14.30;97.30;;;;;;4134354;28;20056;-54
2023/05/01 02:26:12;;;;;;;11.87;8.60;;;14.20;97.10;;;;;;4115563;28;20052;-55
2023/05/01 02:28:21;;;;;;;10.27;9.18;;;14.20;97.20;;;;;;4134256;28;20805;-55
2023/05/01 02:30:24;;;;;;;12.88;8.88;;;14.20;97.10;;;;;;4134458;28;20137;-52
2023/05/01 02:32:27;;;;;;;11.75;8.65;;;14.20;97.50;;;;;;4133972;28;20051;-52
2023/05/01 02:34:29;;;;;;;11.38;9.57;;;14.20;97.10;;;;;;4133833;28;20518;-53
2023/05/01 02:36:32;;;;;;;10.82;8.90;;;14.20;97.20;;;;;;4133910;28;20124;-52
2023/05/01 02:38:36;;;;;;;12.52;9.00;;;14.10;97.20;;;;;;4116687;28;20105;-55
2023/05/01 02:40:39;;;;;;;12.35;9.45;;;14.10;97.20;;;;;;4134115;28;20121;-52
2023/05/01 02:42:42;;;;;;;10.18;8.88;;;14.20;97.20;;;;;;4133887;28;20415;-52
2023/05/01 02:44:49;;;;;;;10.77;8.43;;;14.20;97.10;;;;;;4133212;28;20384;-54
2023/05/01 02:46:54;;;;;;;13.07;8.65;;;14.20;97.00;;;;;;4134015;28;20100;-52
2023/05/01 02:48:58;;;;;;;9.52;8.55;;;14.30;96.90;;;;;;4134069;28;20498;-55
2023/05/01 02:51:02;;;;;;;8.98;8.07;;;14.20;97.10;;;;;;4133970;28;20042;-52
2023/05/01 02:53:04;;;;;;;11.70;9.60;;;14.20;97.00;;;;;;4133831;28;20046;-52
2023/05/01 02:55:08;;;;;;;9.52;8.52;;;14.10;97.20;;;;;;4132995;28;20054;-52
2023/05/01 02:57:11;;;;;;;14.40;9.27;;;14.10;97.10;;;;;;4133810;28;20043;-59
2023/05/01 02:59:14;;;;;;;9.40;8.40;;;14.00;97.20;;;;;;4133500;28;20447;-53
2023/05/01 03:01:16;;;;;;;10.43;8.80;;;14.00;97.30;;;;;;4134031;28;20054;-54
2023/05/01 03:03:18;;;;;;;11.20;8.40;;;14.00;97.30;;;;;;4133844;28;20046;-53
2023/05/01 03:05:20;;;;;;;11.60;9.32;;;14.00;97.50;;;;;;4132845;28;20142;-53
2023/05/01 03:07:23;;;;;;;10.23;8.70;;;14.00;97.30;;;;;;4133641;28;20053;-52
2023/05/01 03:09:25;;;;;;;9.55;8.45;;;14.10;97.30;;;;;;4133749;28;20046;-52
2023/05/01 03:11:29;;;;;;;10.15;8.63;;;14.00;97.50;;;;;;4133466;28;20125;-56
2023/05/01 03:13:31;;;;;;;9.93;8.50;;;14.00;97.30;;;;;;4133403;28;20046;-52
2023/05/01 03:15:33;;;;;;;11.05;9.18;;;14.10;97.30;;;;;;4132721;28;20380;-53
2023/05/01 03:17:35;;;;;;;16.52;10.25;;;14.10;97.20;;;;;;4116031;28;20038;-56
2023/05/01 03:19:37;;;;;;;11.50;8.85;;;14.10;97.20;;;;;;4115942;28;20050;-51
2023/05/01 03:21:39;;;;;;;11.43;9.00;;;14.00;97.40;;;;;;4133270;28;20058;-52
2023/05/01 03:23:41;;;;;;;11.30;9.38;;;14.00;97.60;;;;;;4133277;28;20360;-52
2023/05/01 03:25:43;;;;;;;12.77;9.60;;;14.00;97.60;;;;;;4132543;28;20038;-53
2023/05/01 03:27:48;;;;;;;10.07;8.60;;;14.10;97.30;;;;;;4132954;28;20045;-53
2023/05/01 03:29:51;;;;;;;11.52;10.00;;;14.10;97.50;;;;;;4133258;28;20050;-52
2023/05/01 03:31:53;;;;;;;11.00;9.23;;;14.10;97.40;;;;;;4132562;28;20072;-52
2023/05/01 03:33:55;;;;;;;12.35;10.10;;;14.10;97.70;;;;;;4133529;28;20149;-53
2023/05/01 03:36:02;;;;;;;13.93;10.15;;;14.10;97.70;;;;;;4132490;28;20061;-53
2023/05/01 03:38:04;;;;;;;12.13;10.20;;;14.00;97.50;;;;;;4133148;28;20046;-56
2023/05/01 03:40:08;;;;;;;11.68;9.30;;;14.00;97.40;;;;;;4116015;28;20047;-53
2023/05/01 03:42:09;;;;;;;9.60;8.60;;;13.90;97.50;;;;;;4132832;28;20046;-65
2023/05/01 03:44:13;;;;;;;14.35;10.48;;;13.80;97.70;;;;;;4133307;28;20383;-56
2023/05/01 03:46:15;;;;;;;13.82;9.98;;;13.80;97.70;;;;;;4132294;28;20076;-57
2023/05/01 03:48:17;;;;;;;11.45;9.75;;;13.90;97.70;;;;;;4133483;28;20061;-53
2023/05/01 03:50:19;;;;;;;12.77;10.32;;;13.90;97.70;;;;;;4133241;28;20081;-53
2023/05/01 03:52:22;;;;;;;14.52;10.77;;;13.90;97.80;;;;;;4133192;28;20068;-52
2023/05/01 03:54:24;;;;;;;14.35;12.18;;;13.90;97.80;;;;;;4132867;28;20057;-59
2023/05/01 03:56:27;;;;;;;13.63;11.35;;;13.80;97.90;;;;;;4131811;28;20050;-52
2023/05/01 03:58:29;;;;;;;14.07;11.70;;;13.80;98.10;;;;;;4132896;28;20101;-52
2023/05/01 04:00:33;;;;;;;14.77;12.20;;;13.70;98.30;;;;;;4132145;28;20053;-53
2023/05/01 04:02:35;;;;;;;15.32;12.07;;;13.60;98.40;;;;;;4132985;28;20125;-52
2023/05/01 04:04:37;;;;;;;14.95;12.70;;;13.70;98.50;;;;;;4133035;28;20060;-53
2023/05/01 04:06:40;;;;;;;17.17;12.95;;;13.60;98.60;;;;;;4132227;28;20423;-61
2023/05/01 04:08:42;;;;;;;16.20;12.90;;;13.70;98.80;;;;;;4134743;28;20412;-57
2023/05/01 04:10:44;;;;;;;16.02;14.00;;;13.70;98.70;;;;;;4134352;28;20053;-53
2023/05/01 04:12:46;;;;;;;15.07;12.02;;;13.60;98.70;;;;;;4133530;28;20057;-52
2023/05/01 04:14:48;;;;;;;18.23;13.48;;;13.70;99.00;;;;;;4132851;28;20121;-53
2023/05/01 04:16:52;;;;;;;14.57;12.18;;;13.70;98.90;;;;;;4133374;28;20464;-59
2023/05/01 04:18:54;;;;;;;20.83;14.57;;;13.70;99.00;;;;;;4134322;28;20056;-67
2023/05/01 04:20:56;;;;;;;19.08;13.55;;;13.60;99.00;;;;;;4134015;28;20057;-55
2023/05/01 04:22:58;;;;;;;16.77;13.73;;;13.70;99.00;;;;;;4133872;28;20100;-54
2023/05/01 04:25:00;;;;;;;20.30;16.27;;;13.60;99.30;;;;;;4132774;28;20054;-55
2023/05/01 04:27:03;;;;;;;20.08;17.17;;;13.60;99.30;;;;;;4116524;28;20050;-61
2023/05/01 04:29:05;;;;;;;21.77;17.27;;;13.60;99.30;;;;;;4133881;28;20070;-60
2023/05/01 04:31:08;;;;;;;22.02;17.00;;;13.60;99.30;;;;;;4133416;28;20129;-55
2023/05/01 04:33:12;;;;;;;20.13;16.27;;;13.60;99.80;;;;;;4133539;28;20345;-60
2023/05/01 04:35:14;;;;;;;24.55;19.45;;;13.60;99.40;;;;;;4131361;28;20050;-54
2023/05/01 04:37:17;;;;;;;27.98;19.58;;;13.60;99.40;;;;;;4132046;28;20050;-54
2023/05/01 04:39:19;;;;;;;21.63;18.25;;;13.60;99.50;;;;;;4132046;28;20160;-54
2023/05/01 04:41:21;;;;;;;23.25;18.92;;;13.70;99.50;;;;;;4132243;28;20487;-54
2023/05/01 04:43:23;;;;;;;25.65;20.48;;;13.70;99.40;;;;;;4131662;28;20042;-53
2023/05/01 04:45:25;;;;;;;30.65;23.35;;;13.70;99.40;;;;;;4130987;28;20038;-52
2023/05/01 04:47:27;;;;;;;23.73;19.73;;;13.70;99.80;;;;;;4131776;28;20557;-54
2023/05/01 04:49:31;;;;;;;27.50;21.58;;;13.70;99.70;;;;;;4132061;28;20057;-54
2023/05/01 04:51:33;;;;;;;27.13;20.55;;;13.60;99.80;;;;;;4132298;28;20129;-53
2023/05/01 04:53:35;;;;;;;25.52;20.63;;;13.70;99.90;;;;;;4131841;28;20050;-54
2023/05/01 04:55:37;;;;;;;30.08;22.58;;;13.80;99.90;;;;;;4130942;28;20051;-53
2023/05/01 04:57:40;;;;;;;27.05;21.27;;;13.70;99.90;;;;;;4132083;28;20468;-53
2023/05/01 04:59:42;;;;;;;28.25;21.67;;;13.70;99.90;;;;;;4131969;28;20156;-54
2023/05/01 05:01:44;;;;;;;26.55;19.10;;;13.80;99.90;;;;;;4131808;28;20455;-54
2023/05/01 05:03:46;;;;;;;26.55;21.10;;;13.80;99.90;;;;;;4131631;28;20104;-53
2023/05/01 05:05:52;;;;;;;24.48;17.55;;;13.90;99.90;;;;;;4130743;28;20050;-55
2023/05/01 05:07:57;;;;;;;30.40;22.55;;;14.00;99.90;;;;;;4131342;28;20060;-54
2023/05/01 05:09:59;;;;;;;26.83;21.13;;;13.90;99.70;;;;;;4131839;28;20102;-55
2023/05/01 05:12:03;;;;;;;31.75;25.45;;;14.00;99.90;;;;;;4131595;28;20054;-54
2023/05/01 05:14:05;;;;;;;28.52;21.50;;;14.10;99.60;;;;;;4131705;28;20053;-54
2023/05/01 05:16:07;;;;;;;27.27;20.88;;;14.00;99.60;;;;;;4130773;28;20046;-54
2023/05/01 05:18:09;;;;;;;26.88;21.33;;;14.10;99.80;;;;;;4131445;28;20174;-54
2023/05/01 05:20:12;;;;;;;29.08;23.95;;;14.10;99.70;;;;;;4131573;28;20492;-54
2023/05/01 05:22:15;;;;;;;26.35;21.45;;;14.10;99.70;;;;;;4131592;28;20051;-55
2023/05/01 05:24:18;;;;;;;29.92;22.50;;;14.20;99.60;;;;;;4131309;28;20070;-54
2023/05/01 05:26:20;;;;;;;31.60;24.17;;;14.20;99.80;;;;;;4130261;28;20057;-55
2023/05/01 05:28:22;;;;;;;32.28;25.55;;;14.20;99.50;;;;;;4131634;28;20145;-54
2023/05/01 05:30:25;;;;;;;27.63;20.40;;;14.20;99.50;;;;;;4131697;28;20054;-56
2023/05/01 05:32:27;;;;;;;28.05;21.75;;;14.20;99.60;;;;;;4131692;28;20058;-59
2023/05/01 05:34:29;;;;;;;31.40;23.65;;;14.20;99.60;;;;;;4131439;28;20410;-54
2023/05/01 05:36:32;;;;;;;28.50;22.15;;;14.30;99.50;;;;;;4130444;28;20479;-54
2023/05/01 05:38:35;;;;;;;30.45;23.48;;;14.40;99.60;;;;;;4131099;28;20487;-54
2023/05/01 05:40:37;;;;;;;23.88;19.70;;;14.40;99.50;;;;;;4131475;28;20050;-53
2023/05/01 05:42:39;;;;;;;28.10;22.65;;;14.40;99.40;;;;;;4131476;28;20042;-54
2023/05/01 05:44:42;;;;;;;31.50;24.25;;;14.40;99.40;;;;;;4131267;28;20126;-55
2023/05/01 05:46:44;;;;;;;33.35;24.60;;;14.30;99.40;;;;;;4130229;28;20463;-54
2023/05/01 05:48:46;;;;;;;26.65;20.90;;;14.40;99.40;;;;;;4131324;28;20094;-54
2023/05/01 05:50:51;;;;;;;35.45;27.13;;;14.40;99.20;;;;;;4131095;28;20057;-53
2023/05/01 05:52:53;;;;;;;36.53;27.63;;;14.40;99.10;;;;;;4130958;28;20056;-53
2023/05/01 05:54:57;;;;;;;32.00;24.52;;;14.40;99.40;;;;;;4132811;28;20406;-52
2023/05/01 05:56:59;;;;;;;35.47;26.70;;;14.50;99.20;;;;;;4135813;28;20050;-55
2023/05/01 05:59:03;;;;;;;33.70;24.38;;;14.50;99.10;;;;;;4136547;28;20048;-53
2023/05/01 06:01:05;;;;;;;27.75;22.25;;;14.60;99.20;;;;;;4136704;28;20053;-54
2023/05/01 06:03:08;;;;;;;26.90;21.92;;;14.60;99.00;;;;;;4136817;28;20046;-57
2023/05/01 06:05:10;;;;;;;31.95;24.13;;;14.60;99.10;;;;;;4136281;28;20046;-54
2023/05/01 06:07:12;;;;;;;31.00;25.45;;;14.60;98.80;;;;;;4136544;28;20058;-54
2023/05/01 06:09:16;;;;;;;31.83;24.90;;;14.70;98.80;;;;;;4137334;28;20074;-53
2023/05/01 06:11:20;;;;;;;27.70;22.85;;;14.60;98.70;;;;;;4137134;28;20120;-58
2023/05/01 06:13:22;;;;;;;33.13;26.25;;;14.70;98.80;;;;;;4137099;28;20065;-58
2023/05/01 06:15:24;;;;;;;33.20;27.17;;;14.70;98.80;;;;;;4135839;28;20046;-52
2023/05/01 06:17:26;;;;;;;30.02;23.00;;;14.80;98.60;;;;;;4136444;28;20046;-55
2023/05/01 06:19:29;;;;;;;28.05;21.25;;;14.80;98.60;;;;;;4136632;28;20514;-59
2023/05/01 06:21:31;;;;;;;35.40;27.48;;;14.90;98.50;;;;;;4136109;28;20054;-54
2023/05/01 06:23:33;;;;;;;35.55;27.38;;;14.90;98.50;;;;;;4136311;28;20052;-53
2023/05/01 06:25:36;;;;;;;33.47;25.90;;;14.90;98.30;;;;;;4135653;28;20503;-54
2023/05/01 06:27:39;;;;;;;32.65;24.27;;;14.90;98.40;;;;;;4136206;28;20046;-54
2023/05/01 06:29:41;;;;;;;34.15;26.08;;;15.10;98.00;;;;;;4136418;28;20112;-54
2023/05/01 06:31:46;;;;;;;35.80;29.20;;;15.00;98.10;;;;;;4136274;28;20487;-54
2023/05/01 06:33:48;;;;;;;38.45;27.83;;;15.00;98.00;;;;;;4136334;28;20121;-54
2023/05/01 06:35:50;;;;;;;36.67;26.42;;;15.10;98.10;;;;;;4135396;28;20446;-55
2023/05/01 06:37:52;;;;;;;33.05;23.48;;;15.30;98.10;;;;;;4136363;28;20054;-56
2023/05/01 06:39:54;;;;;;;36.17;26.17;;;15.30;97.90;;;;;;4136241;28;20046;-54
2023/05/01 06:41:57;;;;;;;35.10;27.27;;;15.30;98.00;;;;;;4136487;28;20551;-54
2023/05/01 06:44:00;;;;;;;31.20;24.55;;;15.30;97.50;;;;;;4136164;28;20050;-54
2023/05/01 06:46:03;;;;;;;33.10;27.05;;;15.20;97.80;;;;;;4135388;28;20050;-52
2023/05/01 06:48:05;;;;;;;38.22;27.38;;;15.20;97.80;;;;;;4102606;28;20051;-53
2023/05/01 06:50:09;;;;;;;40.60;30.00;;;15.00;97.90;;;;;;4136084;28;20380;-55
2023/05/01 06:52:11;;;;;;;39.15;29.98;;;15.00;98.10;;;;;;4136134;28;20050;-53
2023/05/01 06:54:13;;;;;;;37.13;26.77;;;15.10;97.80;;;;;;4136577;28;20135;-53
2023/05/01 06:56:16;;;;;;;36.88;27.98;;;15.10;97.90;;;;;;4135147;28;20104;-52
2023/05/01 06:58:18;;;;;;;36.50;27.15;;;15.20;98.20;;;;;;4136406;28;20414;-52
2023/05/01 07:00:26;;;;;;;35.90;26.23;;;15.20;97.90;;;;;;4136272;28;20092;-54
2023/05/01 07:02:29;;;;;;;37.83;27.80;;;15.30;97.90;;;;;;4136285;28;20053;-51
2023/05/01 07:04:31;;;;;;;41.97;30.88;;;15.40;97.80;;;;;;4135955;28;20050;-51
2023/05/01 07:06:34;;;;;;;38.47;28.38;;;15.50;97.70;;;;;;4133367;28;20137;-52
2023/05/01 07:08:36;;;;;;;37.97;29.95;;;15.60;97.60;;;;;;4133657;28;20050;-53
2023/05/01 07:10:38;;;;;;;37.20;29.95;;;15.70;97.30;;;;;;4134026;28;20054;-53
2023/05/01 07:12:42;;;;;;;;;;;15.70;97.00;;;;;;4135215;28;20058;-56
2023/05/01 07:14:45;;;;;;;38.00;28.92;;;15.60;97.30;;;;;;4134494;28;20294;-51
2023/05/01 07:16:48;;;;;;;39.20;30.63;;;15.80;97.40;;;;;;4134320;28;20503;-57
2023/05/01 07:18:51;;;;;;;34.88;26.23;;;16.00;96.90;;;;;;4134441;28;20054;-54
2023/05/01 07:20:53;;;;;;;31.00;24.17;;;16.00;96.60;;;;;;4134736;28;20057;-53
2023/05/01 07:22:55;;;;;;;32.10;25.50;;;16.20;96.70;;;;;;4133694;28;20054;-53
2023/05/01 07:24:57;;;;;;;38.60;27.85;;;16.50;96.20;;;;;;4133799;28;20047;-53
2023/05/01 07:26:59;;;;;;;30.98;24.48;;;16.60;95.80;;;;;;4133457;28;20046;-54
2023/05/01 07:29:03;;;;;;;33.83;26.02;;;16.60;95.40;;;;;;4133726;28;20047;-54
2023/05/01 07:31:05;;;;;;;33.95;25.20;;;16.50;95.60;;;;;;4133476;28;20046;-55
2023/05/01 07:33:11;;;;;;;36.22;25.02;;;16.70;95.80;;;;;;4132968;28;20483;-54
2023/05/01 07:35:14;;;;;;;32.42;25.63;;;16.70;95.40;;;;;;4133401;28;20408;-53
2023/05/01 07:37:17;;;;;;;31.27;24.13;;;16.70;95.60;;;;;;4132409;28;20042;-54
2023/05/01 07:39:19;;;;;;;28.92;20.33;;;16.70;95.50;;;;;;4133659;28;20144;-53
2023/05/01 07:41:21;;;;;;;27.73;21.92;;;16.50;95.30;;;;;;4133356;28;20042;-53
2023/05/01 07:43:23;;;;;;;24.75;19.88;;;16.30;95.60;;;;;;4132955;28;20050;-53
2023/05/01 07:45:25;;;;;;;24.75;19.73;;;16.20;95.80;;;;;;4133477;28;20105;-54
2023/05/01 07:47:27;;;;;;;25.98;20.15;;;16.20;96.00;;;;;;4131922;28;20511;-52
2023/05/01 07:49:35;;;;;;;20.88;15.43;;;16.30;96.30;;;;;;4133034;28;20050;-53
2023/05/01 07:51:37;;;;;;;24.15;17.98;;;16.40;96.20;;;;;;4132950;28;20122;-53
2023/05/01 07:53:41;;;;;;;24.63;17.88;;;16.30;96.00;;;;;;4115902;28;20100;-53
2023/05/01 07:55:43;;;;;;;22.33;16.20;;;16.30;96.20;;;;;;4132585;28;20053;-52
2023/05/01 07:57:45;;;;;;;18.35;14.90;;;16.50;96.00;;;;;;4133039;28;20042;-53
2023/05/01 07:59:47;;;;;;;20.90;16.55;;;16.70;95.50;;;;;;4115538;28;20053;-55
2023/05/01 08:01:49;;;;;;;20.00;15.63;;;16.80;95.50;;;;;;4132872;28;20480;-55
2023/05/01 08:03:51;;;;;;;20.27;15.30;;;16.70;95.40;;;;;;4115069;28;20047;-55
2023/05/01 08:05:55;;;;;;;19.38;15.02;;;16.60;95.20;;;;;;4132297;28;20050;-53
2023/05/01 08:07:58;;;;;;;18.85;15.25;;;16.60;95.30;;;;;;4132692;28;20484;-52
2023/05/01 08:10:00;;;;;;;16.10;12.77;;;16.60;95.30;;;;;;4132202;28;20056;-52
2023/05/01 08:12:02;;;;;;;17.00;12.88;;;16.60;95.40;;;;;;4115194;28;20047;-52
2023/05/01 08:14:05;;;;;;;14.68;12.15;;;16.70;95.60;;;;;;4132703;28;20120;-54
2023/05/01 08:16:08;;;;;;;17.00;12.88;;;16.80;95.10;;;;;;4131856;28;20052;-55
2023/05/01 08:18:10;;;;;;;16.77;12.35;;;16.90;95.00;;;;;;4131810;28;20058;-54
2023/05/01 08:20:13;;;;;;;15.48;12.00;;;16.90;94.70;;;;;;4132513;28;20078;-54
2023/05/01 08:22:16;;;;;;;14.48;11.68;;;17.00;95.00;;;;;;4132109;28;20165;-54
2023/05/01 08:24:18;;;;;;;16.95;13.05;;;17.00;94.90;;;;;;4132409;28;20043;-52
2023/05/01 08:26:20;;;;;;;16.98;12.60;;;17.00;94.80;;;;;;4131264;28;20070;-52
2023/05/01 08:28:23;;;;;;;15.45;11.65;;;16.90;95.00;;;;;;4132446;28;20395;-54
2023/05/01 08:30:26;;;;;;;20.88;14.43;;;17.10;95.10;;;;;;4132479;28;20130;-54
2023/05/01 08:32:29;;;;;;;19.73;14.45;;;17.00;95.10;;;;;;4132025;28;20660;-51
2023/05/01 08:34:31;;;;;;;16.83;12.98;;;17.20;94.80;;;;;;4132337;28;20046;-54
2023/05/01 08:36:33;;;;;;;19.60;15.30;;;17.10;94.60;;;;;;4131233;28;20065;-56
2023/05/01 08:38:37;;;;;;;20.17;15.68;;;17.00;94.80;;;;;;4132298;28;20054;-54
2023/05/01 08:40:42;;;;;;;21.08;15.88;;;16.90;94.80;;;;;;4132466;28;20050;-54
2023/05/01 08:42:44;;;;;;;;;;;16.80;94.80;;;;;;4132749;28;20073;-53
2023/05/01 08:44:48;;;;;;;20.45;16.27;;;16.90;95.40;;;;;;4132365;28;19922;-52
2023/05/01 08:46:58;;;;;;;21.05;15.45;;;16.90;95.10;;;;;;4130979;28;20050;-53
2023/05/01 08:49:04;;;;;;;22.23;17.55;;;17.10;95.30;;;;;;4132243;28;20054;-51
2023/05/01 08:51:10;;;;;;;22.60;15.32;;;17.10;95.00;;;;;;4132517;28;20057;-52
2023/05/01 08:53:16;;;;;;;17.63;14.20;;;17.20;95.10;;;;;;4132378;28;20104;-51
2023/05/01 08:55:20;;;;;;;20.45;13.82;;;17.00;95.20;;;;;;4132789;28;20066;-51
2023/05/01 08:57:24;;;;;;;19.92;14.95;;;17.20;95.20;;;;;;4131679;28;20499;-53
2023/05/01 08:59:28;;;;;;;20.35;15.27;;;17.10;95.00;;;;;;4133034;28;20058;-52
2023/05/01 09:01:32;;;;;;;;;;;17.10;95.50;;;;;;4132920;28;20129;-52
2023/05/01 09:03:36;;;;;;;20.52;14.90;;;17.10;95.40;;;;;;4132245;28;19968;-53
2023/05/01 09:05:38;;;;;;;20.17;14.77;;;17.10;95.60;;;;;;4131750;28;20125;-55
2023/05/01 09:07:41;;;;;;;18.20;14.20;;;17.10;95.20;;;;;;4113802;28;20101;-55
2023/05/01 09:09:43;;;;;;;17.42;13.02;;;16.80;95.20;;;;;;4132039;28;20388;-52
2023/05/01 09:11:49;;;;;;;17.45;12.63;;;16.80;95.40;;;;;;4132064;28;20050;-52
2023/05/01 09:13:52;;;;;;;14.00;11.73;;;16.80;96.00;;;;;;4131947;28;20209;-54
2023/05/01 09:15:55;;;;;;;18.10;13.05;;;16.80;95.60;;;;;;4130562;28;20050;-53
2023/05/01 09:17:59;;;;;;;16.60;12.93;;;16.80;95.70;;;;;;4131694;28;20056;-53
2023/05/01 09:20:06;;;;;;;18.15;12.85;;;16.90;95.30;;;;;;4131636;28;20060;-54
2023/05/01 09:22:09;;;;;;;15.25;12.52;;;17.00;95.40;;;;;;4131481;28;20047;-54
2023/05/01 09:24:11;;;;;;;15.52;11.35;;;17.00;95.30;;;;;;4131663;28;20050;-52
2023/05/01 09:26:13;;;;;;;14.27;11.20;;;17.00;95.30;;;;;;4130825;28;20048;-52
2023/05/01 09:28:17;;;;;;;14.50;11.48;;;17.00;95.50;;;;;;4131355;28;20134;-53
2023/05/01 09:30:37;;;;;;;12.25;9.40;;;16.80;95.60;;;;;;4130466;28;20408;-54
2023/05/01 09:32:39;;;;;;;16.40;11.77;;;17.00;95.90;;;;;;4114102;28;20482;-54
2023/05/01 09:34:44;;;;;;;16.77;12.20;;;16.90;95.50;;;;;;4131468;28;20081;-54
2023/05/01 09:36:46;;;;;;;19.75;12.15;;;16.90;95.60;;;;;;4130668;28;20448;-54
2023/05/01 09:38:48;;;;;;;15.68;12.13;;;16.70;95.90;;;;;;4131614;28;20098;-54
2023/05/01 09:40:55;;;;;;;18.45;12.90;;;16.70;95.90;;;;;;4131311;28;20217;-54
2023/05/01 09:42:57;;;;;;;18.67;13.15;;;16.50;96.00;;;;;;4131627;28;20050;-53
2023/05/01 09:45:03;;;;;;;17.23;12.93;;;16.50;96.10;;;;;;4131021;28;20121;-54
2023/05/01 09:47:07;;;;;;;16.35;12.02;;;16.50;96.40;;;;;;4130292;28;20039;-52
2023/05/01 09:49:09;;;;;;;15.70;11.82;;;16.60;96.40;;;;;;4131398;28;20046;-53
2023/05/01 09:51:22;;;;;;;15.10;10.90;;;16.70;96.30;;;;;;4131560;28;20143;-54
2023/05/01 09:53:37;;;;;;;12.95;9.73;;;17.00;96.10;;;;;;4131427;28;20052;-52
2023/05/01 09:55:39;;;;;;;9.95;6.30;;;17.20;95.60;;;;;;4131799;28;20054;-55
2023/05/01 09:57:43;;;;;;;9.88;5.85;;;17.40;95.20;;;;;;4130647;28;20105;-51
2023/05/01 10:00:07;;;;;;;10.43;7.10;;;17.60;95.00;;;;;;4131099;28;20074;-52
2023/05/01 10:02:28;;;;;;;9.43;7.03;;;17.70;94.70;;;;;;4131581;28;20121;-54
2023/05/01 10:04:31;;;;;;;10.20;6.88;;;17.80;95.00;;;;;;4131605;28;20050;-54
2023/05/01 10:06:33;;;;;;;9.15;7.15;;;17.70;94.80;;;;;;4130396;28;20046;-53
2023/05/01 10:08:46;;;;;;;8.57;6.93;;;17.60;94.90;;;;;;4113916;28;20510;-52
2023/05/01 10:10:59;;;;;;;8.32;5.75;;;17.50;95.20;;;;;;4131041;28;20112;-54
2023/05/01 10:13:13;;;;;;;6.40;5.10;;;17.20;95.00;;;;;;4131059;28;20046;-53
2023/05/01 10:15:19;;;;;;;6.97;4.72;;;17.30;95.70;;;;;;4131001;28;20113;-53
2023/05/01 10:17:27;;;;;;;7.13;5.00;;;17.20;95.30;;;;;;4130078;28;20112;-54
2023/05/01 10:19:30;;;;;;;9.65;5.78;;;17.30;95.70;;;;;;4131147;28;20550;-59
2023/05/01 10:21:32;;;;;;;10.45;6.93;;;17.20;95.30;;;;;;4131347;28;20046;-54
2023/05/01 10:23:35;;;;;;;9.63;6.22;;;17.20;95.60;;;;;;4131110;28;20121;-53
2023/05/01 10:25:41;;;;;;;9.23;7.35;;;17.30;95.30;;;;;;4131030;28;20133;-54
2023/05/01 10:27:43;;;;;;;9.82;6.90;;;17.30;95.50;;;;;;4130143;28;20125;-52
2023/05/01 10:29:47;;;;;;;12.70;7.50;;;17.40;95.50;;;;;;4131024;28;20077;-53
2023/05/01 10:31:51;;;;;;;11.98;7.00;;;17.50;95.50;;;;;;4130987;28;20050;-53
2023/05/01 10:33:54;;;;;;;10.88;6.93;;;17.50;95.30;;;;;;4131150;28;20051;-50